Time;durP1;ratioP1;P1;durP2;ratioP2;P2;SDS_P1;SDS_P2;PMS_P1;PMS_P2;Temp;Humidity;BMP_temperature;BMP_pressure;BME280_temperature;BME280_humidity;BME280_pressure;Samples;Min_cycle;Max_cycle;Signal;HPM_P1;HPM_P2
2024/02/18 00:00:11;;;;;;;12.68;6.68;;;;;;;9.98;100.00;103098.75;6083891;19;20011;-73
2024/02/18 00:02:18;;;;;;;14.85;6.45;;;;;;;10.00;100.00;103103.13;6087025;19;20007;-75
2024/02/18 00:04:24;;;;;;;14.32;6.47;;;;;;;10.11;100.00;103103.13;6087481;19;20503;-76
2024/02/18 00:06:30;;;;;;;11.45;5.68;;;;;;;10.03;100.00;103097.91;6087015;19;20020;-76
2024/02/18 00:08:33;;;;;;;12.50;5.85;;;;;;;10.07;100.00;103097.00;6083624;19;20018;-73
2024/02/18 00:10:38;;;;;;;12.77;5.72;;;;;;;10.10;100.00;103096.09;6088569;19;20011;-74
2024/02/18 00:12:41;;;;;;;12.98;5.95;;;;;;;10.14;100.00;103096.97;6088575;19;20428;-75
2024/02/18 00:14:46;;;;;;;12.75;6.13;;;;;;;10.13;100.00;103092.59;6086930;19;20007;-74
2024/02/18 00:16:51;;;;;;;12.40;6.00;;;;;;;10.13;100.00;103090.84;6087379;19;20549;-75
2024/02/18 00:18:59;;;;;;;11.52;6.22;;;;;;;10.15;100.00;103082.97;6083833;19;20007;-73
2024/02/18 00:21:04;;;;;;;12.38;6.03;;;;;;;10.16;100.00;103092.59;6087448;19;20007;-73
2024/02/18 00:23:09;;;;;;;10.40;5.60;;;;;;;10.21;100.00;103089.06;6085680;19;20003;-74
2024/02/18 00:25:14;;;;;;;15.65;5.97;;;;;;;10.17;100.00;103089.09;6086192;19;20511;-73
2024/02/18 00:27:19;;;;;;;15.35;6.47;;;;;;;10.19;100.00;103084.69;6084927;19;20006;-73
2024/02/18 00:29:24;;;;;;;12.68;5.68;;;;;;;10.18;100.00;103086.44;6084860;19;20459;-73
2024/02/18 00:31:29;;;;;;;16.77;6.75;;;;;;;10.26;100.00;103083.81;6085444;19;20010;-73
2024/02/18 00:33:34;;;;;;;17.83;6.18;;;;;;;10.25;100.00;103079.44;6087020;19;20348;-74
2024/02/18 00:35:43;;;;;;;12.88;5.93;;;;;;;10.23;100.00;103081.19;6087059;19;20006;-74
2024/02/18 00:37:50;;;;;;;9.73;5.55;;;;;;;10.24;100.00;103081.19;6086359;19;20019;-74
2024/02/18 00:39:55;;;;;;;11.18;5.25;;;;;;;10.27;100.00;103072.44;6089090;19;20010;-73
2024/02/18 00:42:00;;;;;;;10.05;5.00;;;;;;;10.25;100.00;103076.81;6087457;19;20043;-74
2024/02/18 00:44:05;;;;;;;10.40;5.55;;;;;;;10.27;100.00;103082.94;6086503;19;20181;-74
2024/02/18 00:46:07;;;;;;;13.30;5.78;;;;;;;10.29;100.00;103075.94;6082595;19;20411;-73
2024/02/18 00:48:30;;;;;;;14.95;5.93;;;;;;;10.33;100.00;103072.44;6087214;19;21421;-74
2024/02/18 00:50:35;;;;;;;12.27;5.65;;;;;;;10.32;100.00;103070.66;6087487;19;20046;-74
2024/02/18 00:52:43;;;;;;;13.32;5.70;;;;;;;10.31;100.00;103071.56;6085853;19;20014;-74
2024/02/18 00:54:48;;;;;;;12.38;5.13;;;;;;;10.28;100.00;103056.69;6085670;19;20035;-75
2024/02/18 00:56:53;;;;;;;12.00;5.60;;;;;;;10.28;100.00;103063.69;6086657;19;20152;-75
2024/02/18 00:58:58;;;;;;;12.88;6.20;;;;;;;10.32;100.00;103060.16;6086371;19;20455;-73
2024/02/18 01:01:03;;;;;;;14.38;5.68;;;;;;;10.33;100.00;103057.53;6083500;19;20389;-75
2024/02/18 01:03:09;;;;;;;10.00;5.78;;;;;;;10.38;100.00;103057.53;6084856;19;20009;-74
2024/02/18 01:05:13;;;;;;;15.93;5.32;;;;;;;10.38;100.00;103051.41;6085653;19;20464;-75
2024/02/18 01:07:19;;;;;;;17.77;5.65;;;;;;;10.33;100.00;103054.03;6084852;19;20407;-75
2024/02/18 01:09:26;;;;;;;14.27;5.35;;;;;;;10.36;100.00;103050.53;6085765;19;20006;-73
2024/02/18 01:11:36;;;;;;;9.25;5.05;;;;;;;10.31;100.00;103054.03;6086671;19;20003;-75
2024/02/18 01:13:41;;;;;;;9.07;5.30;;;;;;;10.33;100.00;103052.28;6080840;19;20011;-75
2024/02/18 01:15:46;;;;;;;13.98;4.78;;;;;;;10.33;100.00;103048.78;6083438;19;20373;-75
2024/02/18 01:17:51;;;;;;;12.43;4.55;;;;;;;10.31;100.00;103047.91;6086517;19;20030;-74
2024/02/18 01:19:57;;;;;;;11.95;5.00;;;;;;;10.31;100.00;103040.03;6081329;19;20462;-74
2024/02/18 01:22:03;;;;;;;11.13;4.43;;;;;;;10.33;100.00;103038.28;6084427;19;20011;-75
2024/02/18 01:24:08;;;;;;;11.07;5.15;;;;;;;10.32;100.00;103039.13;6083584;19;20093;-75
2024/02/18 01:26:16;;;;;;;10.70;4.85;;;;;;;10.30;100.00;103035.66;6076161;19;20066;-75
2024/02/18 01:28:23;;;;;;;12.85;5.38;;;;;;;10.35;100.00;103038.25;6083201;19;20074;-74
2024/02/18 01:30:28;;;;;;;12.93;5.72;;;;;;;10.32;100.00;103031.25;6085451;19;20014;-74
2024/02/18 01:32:30;;;;;;;9.07;4.50;;;;;;;10.31;100.00;103029.50;6083451;19;20675;-74
2024/02/18 01:34:35;;;;;;;11.02;4.60;;;;;;;10.33;100.00;103022.50;6086118;19;20010;-76
2024/02/18 01:36:40;;;;;;;10.38;4.40;;;;;;;10.31;100.00;103029.50;6085522;19;20463;-76
2024/02/18 01:38:46;;;;;;;9.02;3.97;;;;;;;10.28;100.00;103026.91;6085257;19;20463;-73
2024/02/18 01:40:51;;;;;;;12.30;4.40;;;;;;;10.25;100.00;103024.25;6083761;19;20622;-74
2024/02/18 01:42:58;;;;;;;9.50;4.45;;;;;;;10.26;100.00;103021.59;6084771;19;20504;-76
2024/02/18 01:45:04;;;;;;;12.20;5.40;;;;;;;10.21;100.00;103022.50;6083612;19;20047;-74
2024/02/18 01:47:10;;;;;;;10.75;5.30;;;;;;;10.18;100.00;103019.91;6084776;19;20026;-74
2024/02/18 01:49:15;;;;;;;12.45;4.88;;;;;;;10.18;100.00;103012.88;6084040;19;20010;-75
2024/02/18 01:51:22;;;;;;;10.00;4.35;;;;;;;10.15;100.00;103012.03;6081644;19;20408;-75
2024/02/18 01:53:24;;;;;;;10.38;5.05;;;;;;;10.13;100.00;103014.66;6081138;19;20112;-75
2024/02/18 01:55:33;;;;;;;11.27;4.40;;;;;;;10.06;100.00;103012.94;6083706;19;20010;-74
2024/02/18 01:57:46;;;;;;;9.00;4.50;;;;;;;10.01;100.00;103010.34;6081694;19;20026;-75
2024/02/18 02:00:23;;;;;;;12.05;4.70;;;;;;;10.01;100.00;103004.22;6081176;19;20006;-75
2024/02/18 02:04:52;;;;;;;9.07;4.07;;;;;;;9.91;100.00;103000.72;6082742;19;20018;-79
2024/02/18 02:06:57;;;;;;;13.43;4.88;;;;;;;9.93;100.00;103001.59;6082458;19;20090;-79
2024/02/18 02:09:04;;;;;;;9.38;4.65;;;;;;;9.96;100.00;102991.09;6084817;19;20007;-78
2024/02/18 02:11:09;;;;;;;10.60;4.78;;;;;;;9.90;100.00;102999.00;6086317;19;20491;-78
2024/02/18 02:13:14;;;;;;;11.82;5.35;;;;;;;9.92;100.00;102998.97;6087686;19;20107;-78
2024/02/18 02:15:22;;;;;;;13.00;5.10;;;;;;;9.88;100.00;102996.34;6085415;19;20010;-78
2024/02/18 02:17:27;;;;;;;10.15;4.18;;;;;;;9.82;100.00;102990.22;6084560;19;20174;-78
2024/02/18 02:19:32;;;;;;;8.25;4.68;;;;;;;9.82;100.00;102995.50;6081423;19;20043;-77
2024/02/18 02:21:38;;;;;;;10.65;4.90;;;;;;;9.80;100.00;102990.25;6080085;19;20650;-77
2024/02/18 02:23:43;;;;;;;9.85;4.70;;;;;;;9.80;100.00;102990.25;6083378;19;20258;-77
2024/02/18 02:25:48;;;;;;;13.07;5.00;;;;;;;9.80;100.00;102986.78;6083242;19;20017;-77
2024/02/18 02:28:04;;;;;;;9.77;4.15;;;;;;;9.80;100.00;102981.50;6083038;19;20035;-76
2024/02/18 02:30:13;;;;;;;10.32;4.57;;;;;;;9.78;100.00;102980.63;6080842;19;20011;-73
2024/02/18 02:32:19;;;;;;;13.63;4.97;;;;;;;9.79;100.00;102970.09;6078858;19;20118;-73
2024/02/18 02:34:29;;;;;;;13.27;4.55;;;;;;;9.73;100.00;102970.13;6080895;19;20486;-75
2024/02/18 02:36:31;;;;;;;9.68;4.57;;;;;;;9.77;100.00;102963.13;6077029;19;20122;-73
2024/02/18 02:38:42;;;;;;;9.60;5.30;;;;;;;9.74;100.00;102958.78;6080297;19;20462;-73
2024/02/18 02:40:48;;;;;;;7.47;4.05;;;;;;;9.74;100.00;102953.53;6084156;19;20010;-74
2024/02/18 02:42:52;;;;;;;10.45;4.63;;;;;;;9.76;100.00;102950.88;6080593;19;20011;-74
2024/02/18 02:44:57;;;;;;;10.40;4.28;;;;;;;9.75;100.00;102954.41;6082177;19;20497;-73
2024/02/18 02:47:05;;;;;;;9.48;4.05;;;;;;;9.73;100.00;102946.50;6082521;19;20010;-73
2024/02/18 02:49:10;;;;;;;10.05;4.57;;;;;;;9.70;100.00;102946.53;6081870;19;19998;-74
2024/02/18 02:51:16;;;;;;;10.77;4.32;;;;;;;9.74;100.00;102939.50;6079918;19;20072;-74
2024/02/18 02:53:21;;;;;;;7.97;4.05;;;;;;;9.70;100.00;102935.16;6077801;19;20025;-75
2024/02/18 02:55:26;;;;;;;8.20;3.95;;;;;;;9.74;100.00;102932.53;6079547;19;20015;-74
2024/02/18 02:57:28;;;;;;;10.23;4.35;;;;;;;9.78;100.00;102933.38;6080837;19;20667;-74
2024/02/18 02:59:34;;;;;;;11.90;4.20;;;;;;;9.76;100.00;102936.00;6080046;19;20729;-73
2024/02/18 03:01:39;;;;;;;6.70;4.22;;;;;;;9.72;100.00;102925.53;6082845;19;20464;-74
2024/02/18 03:03:47;;;;;;;9.40;3.90;;;;;;;9.71;100.00;102915.88;6081308;19;20043;-74
2024/02/18 03:05:54;;;;;;;8.80;3.97;;;;;;;9.74;100.00;102913.25;6077744;19;22618;-75
2024/02/18 03:07:59;;;;;;;9.05;4.07;;;;;;;9.75;100.00;102909.75;6082285;19;20350;-75
2024/02/18 03:10:05;;;;;;;8.85;4.28;;;;;;;9.71;100.00;102901.00;6092523;19;20020;-76
2024/02/18 03:12:10;;;;;;;8.45;3.58;;;;;;;9.73;100.00;102898.38;6094713;19;20006;-76
2024/02/18 03:14:15;;;;;;;10.20;4.57;;;;;;;9.74;100.00;102894.88;6095034;19;20030;-77
2024/02/18 03:16:21;;;;;;;13.55;4.20;;;;;;;9.72;100.00;102891.41;6094209;19;20614;-77
2024/02/18 03:18:26;;;;;;;12.13;3.67;;;;;;;9.68;100.00;102886.13;6095291;19;20010;-76
2024/02/18 03:20:35;;;;;;;6.55;3.15;;;;;;;9.65;100.00;102880.91;6094485;19;20011;-76
2024/02/18 03:22:40;;;;;;;5.78;3.20;;;;;;;9.66;100.00;102881.78;6092785;19;20002;-76
2024/02/18 03:24:45;;;;;;;8.73;3.88;;;;;;;9.66;100.00;102880.03;6090342;19;20011;-76
2024/02/18 03:26:51;;;;;;;8.98;3.83;;;;;;;9.67;100.00;102870.41;6094559;19;20013;-76
2024/02/18 03:28:56;;;;;;;11.35;4.15;;;;;;;9.64;100.00;102870.44;6090769;19;20034;-73
2024/02/18 03:31:01;;;;;;;9.73;3.28;;;;;;;9.62;100.00;102866.94;6095428;19;20004;-73
2024/02/18 03:33:05;;;;;;;9.70;4.07;;;;;;;9.65;100.00;102854.66;6092027;19;20343;-73
2024/02/18 03:35:10;;;;;;;7.18;3.10;;;;;;;9.68;100.00;102844.13;6095319;19;20009;-74
2024/02/18 03:37:18;;;;;;;9.20;3.67;;;;;;;9.71;100.00;102852.88;6093875;19;20006;-73
2024/02/18 03:39:22;;;;;;;6.85;3.83;;;;;;;9.70;100.00;102844.13;6094189;19;20011;-73
2024/02/18 03:41:30;;;;;;;6.80;3.30;;;;;;;9.68;100.00;102836.25;6093515;19;20019;-73
2024/02/18 03:43:33;;;;;;;6.55;3.05;;;;;;;9.68;100.00;102833.63;6094852;19;20538;-74
2024/02/18 03:45:38;;;;;;;10.00;3.80;;;;;;;9.68;100.00;102831.00;6093235;19;20150;-73
2024/02/18 03:47:42;;;;;;;12.80;4.05;;;;;;;9.66;100.00;102827.53;6093522;19;20637;-73
2024/02/18 03:49:46;;;;;;;8.32;3.63;;;;;;;9.64;100.00;102826.66;6089408;19;20652;-76
2024/02/18 03:51:52;;;;;;;8.25;4.05;;;;;;;9.68;100.00;102814.38;6093375;19;20034;-73
2024/02/18 03:53:59;;;;;;;5.47;3.25;;;;;;;9.61;100.00;102824.06;6090226;19;20003;-74
2024/02/18 03:56:08;;;;;;;7.25;3.22;;;;;;;9.66;100.00;102806.53;6094188;19;20089;-75
2024/02/18 03:58:14;;;;;;;5.40;3.55;;;;;;;9.62;100.00;102804.78;6093215;19;20514;-75
2024/02/18 04:00:19;;;;;;;8.25;3.90;;;;;;;9.63;100.00;102797.78;6095557;19;20784;-76
2024/02/18 04:02:25;;;;;;;8.70;3.35;;;;;;;9.63;100.00;102793.41;6090533;19;20464;-73
2024/02/18 04:04:30;;;;;;;7.25;3.58;;;;;;;9.60;100.00;102785.56;6090943;19;20017;-73
2024/02/18 04:06:36;;;;;;;9.75;3.42;;;;;;;9.58;100.00;102776.81;6093004;19;20014;-75
2024/02/18 04:08:42;;;;;;;8.73;4.15;;;;;;;9.58;100.00;102779.44;6092191;19;19998;-75
2024/02/18 04:10:47;;;;;;;6.40;3.40;;;;;;;9.57;100.00;102774.22;6089555;19;20010;-73
2024/02/18 04:12:52;;;;;;;10.20;3.53;;;;;;;9.59;100.00;102757.56;6089687;19;20582;-73
2024/02/18 04:14:57;;;;;;;12.68;3.80;;;;;;;9.53;100.00;102757.63;6093015;19;20058;-75
2024/02/18 04:17:01;;;;;;;6.25;3.20;;;;;;;9.51;100.00;102755.88;6092183;19;20035;-74
2024/02/18 04:19:06;;;;;;;6.05;3.40;;;;;;;9.54;100.00;102746.22;6091037;19;20083;-74
2024/02/18 04:21:11;;;;;;;6.00;3.13;;;;;;;9.50;100.00;102752.34;6085571;19;20007;-74
2024/02/18 04:23:17;;;;;;;9.25;3.65;;;;;;;9.43;100.00;102748.03;6085196;19;20471;-76
2024/02/18 04:25:21;;;;;;;10.00;4.20;;;;;;;9.46;100.00;102748.03;6088218;19;20006;-77
2024/02/18 04:27:29;;;;;;;8.05;3.92;;;;;;;9.45;100.00;102735.75;6086058;19;21226;-74
2024/02/18 04:29:35;;;;;;;8.23;3.95;;;;;;;9.49;100.00;102737.50;6088223;19;20014;-73
2024/02/18 04:31:43;;;;;;;11.88;3.92;;;;;;;9.43;100.00;102732.28;6086656;19;20349;-74
2024/02/18 04:33:48;;;;;;;11.27;4.10;;;;;;;9.41;100.00;102727.03;6085951;19;20359;-74
2024/02/18 04:35:53;;;;;;;10.15;3.63;;;;;;;9.38;100.00;102731.44;6082984;19;20030;-74
2024/02/18 04:37:59;;;;;;;8.88;3.90;;;;;;;9.40;100.00;102730.56;6086080;19;20007;-75
2024/02/18 04:40:01;;;;;;;11.32;4.50;;;;;;;9.41;100.00;102723.56;6086102;19;20010;-76
2024/02/18 04:42:06;;;;;;;11.45;3.83;;;;;;;9.40;100.00;102720.06;6088533;19;20035;-74
2024/02/18 04:44:14;;;;;;;9.90;3.90;;;;;;;9.40;100.00;102708.66;6086862;19;20010;-77
2024/02/18 04:46:19;;;;;;;7.97;3.75;;;;;;;9.38;100.00;102713.09;6087122;19;20002;-76
2024/02/18 04:48:27;;;;;;;6.93;3.97;;;;;;;9.36;100.00;102713.06;6084647;19;20014;-77
2024/02/18 04:50:32;;;;;;;10.48;3.40;;;;;;;9.36;100.00;102715.69;6086560;19;20014;-77
2024/02/18 04:52:39;;;;;;;11.45;4.68;;;;;;;9.36;100.00;102714.84;6084610;19;20035;-77
2024/02/18 04:54:44;;;;;;;17.60;4.57;;;;;;;9.36;100.00;102717.47;6086859;19;20512;-76
2024/02/18 04:56:49;;;;;;;8.65;3.50;;;;;;;9.34;100.00;102713.97;6085404;19;20007;-77
2024/02/18 04:58:52;;;;;;;7.68;3.58;;;;;;;9.31;100.00;102706.13;6083694;19;20006;-78
2024/02/18 05:01:00;;;;;;;8.15;3.08;;;;;;;9.30;100.00;102700.00;6085456;19;20394;-78
2024/02/18 05:03:06;;;;;;;8.98;3.72;;;;;;;9.30;100.00;102704.38;6086848;19;20031;-77
2024/02/18 05:05:08;;;;;;;8.85;4.10;;;;;;;9.29;100.00;102711.34;6084079;19;20576;-77
2024/02/18 05:07:14;;;;;;;12.30;3.97;;;;;;;9.31;100.00;102698.25;6085282;19;20043;-74
2024/02/18 05:09:17;;;;;;;6.60;3.20;;;;;;;9.32;100.00;102702.59;6084895;19;20016;-74
2024/02/18 05:11:22;;;;;;;7.35;3.50;;;;;;;9.27;100.00;102693.88;6085184;19;20389;-75
2024/02/18 05:13:30;;;;;;;9.93;3.85;;;;;;;9.23;100.00;102693.91;6084559;19;20018;-75
2024/02/18 05:15:36;;;;;;;5.93;3.47;;;;;;;9.21;100.00;102690.41;6084789;19;20010;-75
2024/02/18 05:17:43;;;;;;;10.50;4.47;;;;;;;9.20;100.00;102683.44;6083174;19;20009;-76
2024/02/18 05:19:49;;;;;;;11.15;4.53;;;;;;;9.17;100.00;102687.81;6085285;19;20519;-75
2024/02/18 05:21:59;;;;;;;7.13;3.70;;;;;;;9.17;100.00;102677.34;6083283;19;20024;-75
2024/02/18 05:24:08;;;;;;;9.40;3.58;;;;;;;9.15;100.00;102676.47;6083962;19;20010;-75
2024/02/18 05:26:16;;;;;;;6.90;3.55;;;;;;;9.12;100.00;102669.47;6082207;19;20064;-75
2024/02/18 05:28:22;;;;;;;9.57;3.97;;;;;;;9.10;100.00;102683.47;6084200;19;20116;-77
2024/02/18 05:30:27;;;;;;;7.85;3.60;;;;;;;9.13;100.00;102675.59;6085057;19;20007;-76
2024/02/18 05:32:32;;;;;;;9.07;4.10;;;;;;;9.09;100.00;102674.75;6086303;19;20143;-77
2024/02/18 05:34:40;;;;;;;9.35;3.53;;;;;;;9.07;100.00;102675.63;6085862;19;20030;-78
2024/02/18 05:36:46;;;;;;;12.02;4.10;;;;;;;9.04;100.00;102667.78;6084009;19;20456;-76
2024/02/18 05:38:51;;;;;;;8.18;3.60;;;;;;;9.01;100.00;102672.16;6082945;19;20042;-75
2024/02/18 05:40:56;;;;;;;8.20;3.38;;;;;;;9.00;100.00;102674.78;6080266;19;20010;-76
2024/02/18 05:43:01;;;;;;;11.05;4.35;;;;;;;9.02;100.00;102668.66;6086470;19;20082;-75
2024/02/18 05:45:08;;;;;;;7.10;3.85;;;;;;;8.96;100.00;102662.56;6084362;19;20773;-75
2024/02/18 05:47:13;;;;;;;12.23;3.80;;;;;;;8.93;100.00;102667.84;6081487;19;20034;-75
2024/02/18 05:49:18;;;;;;;8.45;3.53;;;;;;;8.95;100.00;102655.56;6085054;19;20007;-80
2024/02/18 05:51:26;;;;;;;8.98;4.60;;;;;;;8.93;100.00;102652.97;6085898;19;20054;-76
2024/02/18 05:53:31;;;;;;;9.98;3.58;;;;;;;8.92;100.00;102650.34;6081186;19;20010;-77
2024/02/18 05:55:36;;;;;;;9.23;3.50;;;;;;;8.91;100.00;102643.38;6083949;19;20031;-76
2024/02/18 05:57:41;;;;;;;10.65;3.78;;;;;;;8.88;100.00;102633.78;6083074;19;20015;-76
2024/02/18 05:59:46;;;;;;;9.90;4.07;;;;;;;8.88;100.00;102638.16;6083472;19;20014;-76
2024/02/18 06:01:51;;;;;;;7.90;3.95;;;;;;;8.90;100.00;102633.75;6082472;19;20010;-76
2024/02/18 06:03:56;;;;;;;9.02;3.95;;;;;;;8.92;100.00;102629.38;6084550;19;20031;-77
2024/02/18 06:06:01;;;;;;;11.10;4.03;;;;;;;8.86;100.00;102616.31;6082084;19;20030;-76
2024/02/18 06:08:09;;;;;;;9.85;3.55;;;;;;;8.83;100.00;102609.31;6083582;19;19998;-74
2024/02/18 06:10:16;;;;;;;11.68;4.00;;;;;;;8.84;100.00;102605.81;6083301;19;20504;-74
2024/02/18 06:12:22;;;;;;;11.75;4.43;;;;;;;8.84;100.00;102607.56;6084713;19;20035;-74
2024/02/18 06:14:28;;;;;;;7.10;3.47;;;;;;;8.88;100.00;102606.69;6083714;19;20066;-74
2024/02/18 06:16:33;;;;;;;8.32;3.70;;;;;;;8.87;100.00;102603.16;6084441;19;20021;-76
2024/02/18 06:18:38;;;;;;;8.98;3.60;;;;;;;8.85;100.00;102601.47;6083663;19;20027;-76
2024/02/18 06:20:44;;;;;;;11.85;4.13;;;;;;;8.83;100.00;102603.22;6084903;19;20003;-78
2024/02/18 06:22:49;;;;;;;10.10;3.33;;;;;;;8.82;100.00;102596.22;6085220;19;20017;-75
2024/02/18 06:24:57;;;;;;;10.32;3.80;;;;;;;8.82;100.00;102604.06;6082060;19;20316;-77
2024/02/18 06:27:02;;;;;;;10.57;4.03;;;;;;;8.84;100.00;102589.22;6084640;19;20159;-75
2024/02/18 06:29:05;;;;;;;10.15;3.40;;;;;;;8.81;100.00;102594.47;6083222;19;20043;-74
2024/02/18 06:31:10;;;;;;;;;;;;;;;8.85;100.00;102590.97;6085244;19;20467;-74
2024/02/18 06:33:16;;;;;;;13.57;3.83;;;;;;;8.79;100.00;102598.00;6087211;19;19932;-75
2024/02/18 06:35:21;;;;;;;13.20;3.80;;;;;;;8.75;100.00;102584.91;6082426;19;20006;-76
2024/02/18 06:37:27;;;;;;;7.60;3.60;;;;;;;8.77;100.00;102588.38;6080789;19;20459;-74
2024/02/18 06:39:32;;;;;;;7.63;3.63;;;;;;;8.74;100.00;102586.66;6083299;19;20010;-75
2024/02/18 06:41:39;;;;;;;9.43;4.03;;;;;;;8.79;100.00;102586.59;6082497;19;20416;-76
2024/02/18 06:43:44;;;;;;;8.90;3.72;;;;;;;8.78;100.00;102574.41;6083355;19;20009;-77
2024/02/18 06:45:49;;;;;;;10.45;4.35;;;;;;;8.74;100.00;102573.56;6081370;19;20015;-76
2024/02/18 06:47:52;;;;;;;9.30;3.45;;;;;;;8.77;100.00;102577.91;6081171;19;20011;-77
2024/02/18 06:49:57;;;;;;;10.15;4.50;;;;;;;8.71;100.00;102567.44;6084236;19;20018;-76
2024/02/18 06:52:03;;;;;;;6.55;3.38;;;;;;;8.69;100.00;102562.22;6084799;19;20368;-76
2024/02/18 06:54:08;;;;;;;7.60;3.50;;;;;;;8.69;100.00;102554.34;6082506;19;20006;-73
2024/02/18 06:56:19;;;;;;;9.15;3.70;;;;;;;8.68;100.00;102563.06;6083208;19;20010;-74
2024/02/18 06:58:30;;;;;;;7.47;3.38;;;;;;;8.68;100.00;102549.09;6083433;19;21088;-75
2024/02/18 07:00:35;;;;;;;7.22;3.75;;;;;;;8.70;100.00;102548.22;6084715;19;20471;-76
2024/02/18 07:02:41;;;;;;;7.18;3.35;;;;;;;8.68;100.00;102557.84;6083463;19;20006;-75
2024/02/18 07:04:43;;;;;;;6.68;3.22;;;;;;;8.71;100.00;102557.81;6083108;19;20048;-75
2024/02/18 07:06:48;;;;;;;9.25;3.50;;;;;;;8.70;100.00;102552.59;6085025;19;20066;-75
2024/02/18 07:08:53;;;;;;;12.55;3.67;;;;;;;8.71;100.00;102542.09;6081195;19;20007;-78
2024/02/18 07:10:59;;;;;;;6.90;3.55;;;;;;;8.73;100.00;102540.34;6084707;19;20082;-77
2024/02/18 07:13:01;;;;;;;8.32;3.50;;;;;;;8.70;100.00;102545.59;6083846;19;20014;-77
2024/02/18 07:15:10;;;;;;;7.55;3.72;;;;;;;8.73;100.00;102532.47;6081726;19;20006;-77
2024/02/18 07:17:19;;;;;;;8.15;4.07;;;;;;;8.72;100.00;102530.75;6083343;19;20010;-78
2024/02/18 07:19:26;;;;;;;6.88;3.25;;;;;;;8.70;100.00;102531.63;6081715;19;20014;-77
2024/02/18 07:21:32;;;;;;;12.02;3.70;;;;;;;8.71;100.00;102531.59;6080989;19;20014;-76
2024/02/18 07:23:37;;;;;;;16.92;4.07;;;;;;;8.70;100.00;102529.00;6084788;19;20539;-76
2024/02/18 07:25:45;;;;;;;10.60;3.53;;;;;;;8.70;100.00;102527.25;6084292;19;20015;-76
2024/02/18 07:27:50;;;;;;;10.15;3.30;;;;;;;8.70;100.00;102514.16;6080980;19;20047;-76
2024/02/18 07:29:55;;;;;;;8.27;4.05;;;;;;;8.69;100.00;102520.28;6080351;19;19999;-76
2024/02/18 07:32:02;;;;;;;10.60;4.45;;;;;;;8.69;100.00;102522.00;6081659;19;20013;-75
2024/02/18 07:34:08;;;;;;;7.18;3.75;;;;;;;8.74;100.00;102510.66;6083787;19;20060;-76
2024/02/18 07:36:13;;;;;;;7.35;3.55;;;;;;;8.72;100.00;102509.78;6083358;19;20098;-76
2024/02/18 07:38:18;;;;;;;7.25;3.45;;;;;;;8.71;100.00;102515.88;6083389;19;20007;-76
2024/02/18 07:40:23;;;;;;;9.25;3.47;;;;;;;8.70;100.00;102518.53;6082580;19;20006;-76
2024/02/18 07:42:29;;;;;;;9.02;3.58;;;;;;;8.67;100.00;102508.94;6084714;19;20822;-77
2024/02/18 07:44:36;;;;;;;8.23;3.42;;;;;;;8.68;100.00;102509.78;6083143;19;20104;-77
2024/02/18 07:46:41;;;;;;;8.82;4.43;;;;;;;8.68;100.00;102521.13;6082468;19;20006;-77
2024/02/18 07:48:53;;;;;;;8.50;3.67;;;;;;;8.67;100.00;102508.06;6083322;19;20040;-75
2024/02/18 07:51:02;;;;;;;7.72;3.97;;;;;;;8.64;100.00;102508.09;6083529;19;20018;-77
2024/02/18 07:53:21;;;;;;;9.70;3.60;;;;;;;8.60;100.00;102517.69;6078891;19;20456;-75
2024/02/18 07:55:24;;;;;;;12.52;4.88;;;;;;;8.63;100.00;102506.31;6084831;19;20035;-75
2024/02/18 07:57:29;;;;;;;;;;;;;;;8.62;100.00;102515.94;6088569;19;20061;-77
2024/02/18 07:59:34;;;;;;;9.88;3.22;;;;;;;8.62;100.00;102509.84;6088791;19;19921;-78
2024/02/18 08:01:38;;;;;;;9.38;3.70;;;;;;;8.62;100.00;102508.09;6087295;19;20014;-77
2024/02/18 08:03:43;;;;;;;;;;;;;;;8.61;100.00;102508.97;6089038;19;20002;-76
2024/02/18 08:05:51;;;;;;;8.35;3.33;;;;;;;8.61;100.00;102503.72;6087231;19;19918;-77
2024/02/18 08:07:56;;;;;;;12.48;4.15;;;;;;;8.59;100.00;102512.47;6089730;19;20005;-77
2024/02/18 08:10:01;;;;;;;5.57;3.38;;;;;;;8.55;100.00;102504.59;6087321;19;20010;-78
2024/02/18 08:12:07;;;;;;;9.40;3.53;;;;;;;8.57;100.00;102502.00;6088442;19;20003;-77
2024/02/18 08:14:12;;;;;;;9.60;3.70;;;;;;;8.55;100.00;102514.22;6088314;19;20007;-76
2024/02/18 08:16:18;;;;;;;8.93;3.53;;;;;;;8.50;100.00;102500.28;6084678;19;20018;-76
2024/02/18 08:18:24;;;;;;;9.82;3.65;;;;;;;8.51;100.00;102496.81;6084491;19;20002;-77
2024/02/18 08:20:29;;;;;;;6.63;3.25;;;;;;;8.49;100.00;102490.69;6087504;19;20010;-76
2024/02/18 08:22:35;;;;;;;9.32;3.97;;;;;;;8.48;100.00;102488.97;6084777;19;20007;-77
2024/02/18 08:24:40;;;;;;;16.08;4.13;;;;;;;8.46;100.00;102488.94;6088054;19;20002;-78
2024/02/18 08:26:45;;;;;;;7.53;3.58;;;;;;;8.46;100.00;102485.47;6087162;19;20002;-75
2024/02/18 08:28:50;;;;;;;7.63;3.35;;;;;;;8.45;100.00;102483.72;6086979;19;20539;-76
2024/02/18 08:30:55;;;;;;;8.40;4.15;;;;;;;8.47;100.00;102485.44;6087569;19;20042;-76
2024/02/18 08:33:01;;;;;;;8.77;3.72;;;;;;;8.50;100.00;102484.56;6086105;19;20488;-76
2024/02/18 08:35:07;;;;;;;8.77;3.70;;;;;;;8.50;100.00;102479.31;6087606;19;20002;-75
2024/02/18 08:37:12;;;;;;;10.55;4.20;;;;;;;8.47;100.00;102480.19;6086759;19;20968;-78
2024/02/18 08:39:20;;;;;;;11.95;5.03;;;;;;;8.46;100.00;102475.00;6080322;19;20360;-76
2024/02/18 08:41:32;;;;;;;7.22;3.80;;;;;;;8.46;100.00;102473.25;6083996;19;20010;-76
2024/02/18 08:43:42;;;;;;;9.30;3.65;;;;;;;8.43;100.00;102480.25;6087004;19;20020;-76
2024/02/18 08:45:47;;;;;;;9.05;3.53;;;;;;;8.40;100.00;102454.03;6086436;19;20110;-78
2024/02/18 08:47:52;;;;;;;8.05;3.58;;;;;;;8.39;100.00;102460.16;6083611;19;20555;-77
2024/02/18 08:49:54;;;;;;;7.28;3.55;;;;;;;8.38;100.00;102463.66;6085686;19;20504;-75
2024/02/18 08:51:59;;;;;;;;;;;;;;;8.40;100.00;102452.31;6088461;19;20031;-77
2024/02/18 08:54:05;;;;;;;9.48;3.95;;;;;;;8.42;100.00;102450.53;6082148;19;19933;-77
2024/02/18 08:56:13;;;;;;;6.85;3.13;;;;;;;8.39;100.00;102452.28;6082702;19;20086;-78
2024/02/18 08:58:18;;;;;;;8.82;3.88;;;;;;;8.46;100.00;102451.41;6087497;19;20021;-77
2024/02/18 09:00:26;;;;;;;9.38;3.85;;;;;;;8.43;100.00;102446.19;6086264;19;20009;-77
2024/02/18 09:02:31;;;;;;;11.07;3.97;;;;;;;8.46;100.00;102438.31;6088014;19;20440;-76
2024/02/18 09:04:36;;;;;;;7.65;3.80;;;;;;;8.47;100.00;102442.66;6086113;19;20010;-76
2024/02/18 09:06:44;;;;;;;8.10;3.63;;;;;;;8.40;100.00;102443.56;6088259;19;20017;-78
2024/02/18 09:08:50;;;;;;;8.90;4.15;;;;;;;8.43;100.00;102430.47;6087296;19;20606;-78
2024/02/18 09:10:55;;;;;;;7.25;3.72;;;;;;;8.41;100.00;102429.63;6090708;19;20021;-77
2024/02/18 09:13:04;;;;;;;9.75;4.32;;;;;;;8.41;100.00;102422.63;6090981;19;20010;-76
2024/02/18 09:15:11;;;;;;;7.22;3.65;;;;;;;8.34;100.00;102437.44;6090023;19;20010;-77
2024/02/18 09:17:17;;;;;;;11.18;4.38;;;;;;;8.35;100.00;102420.88;6089957;19;20003;-77
2024/02/18 09:19:22;;;;;;;8.68;4.78;;;;;;;8.39;100.00;102407.75;6085823;19;20002;-77
2024/02/18 09:21:27;;;;;;;10.43;4.45;;;;;;;8.36;100.00;102414.75;6088407;19;20010;-75
2024/02/18 09:23:32;;;;;;;9.55;4.10;;;;;;;8.37;100.00;102413.00;6085876;19;20022;-77
2024/02/18 09:25:38;;;;;;;12.02;3.85;;;;;;;8.42;100.00;102405.16;6087896;19;20043;-77
2024/02/18 09:27:40;;;;;;;10.35;4.32;;;;;;;8.37;100.00;102402.50;6088138;19;20004;-76
2024/02/18 09:29:48;;;;;;;9.45;4.22;;;;;;;8.39;100.00;102390.31;6085737;19;20022;-77
2024/02/18 09:31:53;;;;;;;14.70;5.05;;;;;;;8.40;100.00;102394.69;6086136;19;20010;-76
2024/02/18 09:33:59;;;;;;;16.45;5.18;;;;;;;8.39;100.00;102394.66;6088722;19;20011;-77
2024/02/18 09:36:04;;;;;;;7.53;4.40;;;;;;;8.37;100.00;102378.94;6088089;19;20014;-77
2024/02/18 09:38:10;;;;;;;12.38;4.43;;;;;;;8.39;100.00;102376.31;6083310;19;20295;-75
2024/02/18 09:40:13;;;;;;;8.40;4.38;;;;;;;8.38;100.00;102375.47;6085495;19;20475;-75
2024/02/18 09:42:19;;;;;;;14.82;5.13;;;;;;;8.40;100.00;102362.38;6086826;19;20434;-75
2024/02/18 09:44:29;;;;;;;12.18;6.00;;;;;;;8.39;100.00;102357.97;6079050;19;19998;-76